Time;durP1;ratioP1;P1;durP2;ratioP2;P2;SDS_P1;SDS_P2;PMS_P1;PMS_P2;Temp;Humidity;BMP_temperature;BMP_pressure;BME280_temperature;BME280_humidity;BME280_pressure;Samples;Min_cycle;Max_cycle;Signal;HPM_P1;HPM_P2
2022/04/01 00:00:01;;;;;;;2.63;1.50;;;1.60;99.90;;;;;;5004469;28;20038;-73
2022/04/01 00:02:27;;;;;;;3.85;1.02;;;1.60;99.90;;;;;;5017125;28;20046;-72
2022/04/01 00:04:53;;;;;;;2.30;1.27;;;1.60;99.90;;;;;;5017192;28;20128;-72
2022/04/01 00:07:19;;;;;;;6.18;1.25;;;1.60;99.90;;;;;;5020694;28;20132;-74
2022/04/01 00:09:45;;;;;;;4.57;1.45;;;1.70;99.90;;;;;;4998904;28;20402;-72
2022/04/01 00:12:11;;;;;;;3.28;1.27;;;1.60;99.90;;;;;;5002193;28;20401;-72
2022/04/01 00:14:38;;;;;;;4.07;1.33;;;1.60;99.90;;;;;;5016711;28;20047;-71
2022/04/01 00:17:04;;;;;;;3.35;1.20;;;1.60;99.90;;;;;;5016777;28;20058;-71
2022/04/01 00:19:30;;;;;;;2.80;1.20;;;1.70;99.90;;;;;;5004791;28;20132;-73
2022/04/01 00:21:56;;;;;;;3.38;1.40;;;1.60;99.90;;;;;;5023909;28;20049;-71
2022/04/01 00:24:23;;;;;;;2.65;1.30;;;1.90;99.90;;;;;;5004076;28;20045;-71
2022/04/01 00:26:48;;;;;;;4.05;1.33;;;2.30;99.90;;;;;;5022457;28;20445;-75
2022/04/01 00:29:15;;;;;;;2.55;1.05;;;1.70;99.90;;;;;;5007447;28;20045;-72
2022/04/01 00:31:49;;;;;;;5.05;1.52;;;1.70;99.90;;;;;;5013422;28;20046;-72
2022/04/01 00:34:16;;;;;;;2.13;1.23;;;1.70;99.90;;;;;;5016053;28;20042;-71
2022/04/01 00:36:46;;;;;;;5.97;1.35;;;1.70;99.90;;;;;;5022470;28;20319;-71
2022/04/01 00:39:13;;;;;;;2.13;1.30;;;1.80;99.90;;;;;;5012898;28;20108;-71
2022/04/01 00:41:40;;;;;;;2.42;1.20;;;1.70;99.90;;;;;;5017205;28;20300;-72
2022/04/01 00:44:18;;;;;;;2.97;1.40;;;1.70;99.90;;;;;;4999261;28;20145;-71
2022/04/01 00:46:55;;;;;;;3.75;1.23;;;1.80;99.90;;;;;;5004418;28;20619;-74
2022/04/01 00:49:21;;;;;;;1.73;1.20;;;2.40;99.90;;;;;;5026144;28;20046;-70
2022/04/01 00:51:50;;;;;;;2.80;1.27;;;1.80;99.90;;;;;;5018783;28;20060;-71
2022/04/01 00:54:16;;;;;;;2.63;0.98;;;1.80;99.90;;;;;;5014989;28;20053;-71
2022/04/01 00:56:43;;;;;;;3.35;1.63;;;1.80;99.90;;;;;;5016970;28;20051;-74
2022/04/01 00:59:10;;;;;;;3.45;1.70;;;1.80;99.90;;;;;;5038105;28;20049;-71
2022/04/01 01:01:36;;;;;;;3.72;1.42;;;1.90;99.90;;;;;;5005784;28;20045;-71
2022/04/01 01:04:10;;;;;;;2.75;1.15;;;1.90;99.90;;;;;;4985517;28;20045;-72
2022/04/01 01:06:43;;;;;;;1.95;1.25;;;1.90;99.90;;;;;;5039703;28;20083;-74
2022/04/01 01:09:10;;;;;;;2.95;1.30;;;1.90;99.90;;;;;;5022909;28;20046;-72
2022/04/01 01:11:36;;;;;;;3.03;1.40;;;1.90;99.90;;;;;;4996895;28;20044;-71
2022/04/01 01:14:03;;;;;;;5.82;1.60;;;1.90;99.90;;;;;;5007705;28;20080;-70
2022/04/01 01:16:29;;;;;;;3.53;1.27;;;1.90;99.90;;;;;;5022952;28;20053;-71
2022/04/01 01:19:08;;;;;;;3.20;1.60;;;1.90;99.90;;;;;;5010670;28;20049;-70
2022/04/01 01:21:34;;;;;;;2.60;1.58;;;2.00;99.90;;;;;;4997795;28;20541;-71
2022/04/01 01:24:03;;;;;;;2.90;1.27;;;1.90;99.90;;;;;;5002920;28;20430;-71
2022/04/01 01:26:33;;;;;;;3.50;1.70;;;2.00;99.90;;;;;;5022191;28;20049;-71
2022/04/01 01:29:00;;;;;;;2.90;1.40;;;2.00;99.90;;;;;;5019338;28;20044;-71
2022/04/01 01:31:26;;;;;;;1.60;1.10;;;2.00;99.90;;;;;;4995149;28;20521;-70
2022/04/01 01:33:54;;;;;;;1.73;1.13;;;2.10;99.90;;;;;;5025231;28;20044;-71
2022/04/01 01:36:22;;;;;;;5.13;1.48;;;2.00;99.90;;;;;;5018001;28;20140;-73
2022/04/01 01:38:49;;;;;;;4.75;1.30;;;2.00;99.90;;;;;;5008119;28;20053;-72
2022/04/01 01:41:15;;;;;;;3.25;1.27;;;2.10;99.90;;;;;;5010482;28;20128;-70
2022/04/01 01:43:41;;;;;;;4.65;1.67;;;2.10;99.90;;;;;;4996044;28;20061;-71
2022/04/01 01:46:08;;;;;;;2.17;1.10;;;2.10;99.90;;;;;;5014226;28;20132;-70
2022/04/01 01:48:34;;;;;;;4.80;1.42;;;2.10;99.90;;;;;;4996314;28;20045;-70
2022/04/01 01:56:29;;;;;;;1.55;1.15;;;2.10;99.90;;;;;;5009726;28;20498;-71
2022/04/01 01:58:55;;;;;;;4.43;1.40;;;3.00;99.90;;;;;;5011346;28;20046;-70
2022/04/01 02:01:22;;;;;;;4.22;1.30;;;2.10;99.90;;;;;;5014872;28;20116;-70
2022/04/01 02:03:49;;;;;;;1.85;1.30;;;2.10;99.90;;;;;;5023102;28;20045;-70
2022/04/01 02:06:15;;;;;;;3.08;1.50;;;2.10;99.90;;;;;;4996441;28;20049;-71
2022/04/01 02:08:42;;;;;;;3.67;1.20;;;2.10;99.90;;;;;;4995049;28;20054;-71
2022/04/01 02:11:08;;;;;;;3.13;1.17;;;2.10;99.90;;;;;;5006670;28;20046;-70
2022/04/01 02:13:35;;;;;;;4.68;1.75;;;2.10;99.90;;;;;;5007682;28;20054;-70
2022/04/01 02:16:01;;;;;;;2.33;1.23;;;2.10;99.90;;;;;;5016017;28;20136;-70
2022/04/01 02:18:27;;;;;;;2.95;1.40;;;2.10;99.90;;;;;;4971053;28;20605;-70
2022/04/01 02:20:53;;;;;;;5.45;1.38;;;3.00;99.90;;;;;;5023521;28;20116;-72
2022/04/01 02:23:19;;;;;;;3.58;1.40;;;2.10;99.90;;;;;;4995734;28;20133;-74
2022/04/01 02:25:45;;;;;;;3.38;1.30;;;2.10;99.90;;;;;;4995563;28;20474;-73
2022/04/01 02:28:12;;;;;;;1.88;1.45;;;2.10;99.90;;;;;;4996058;28;20046;-72
2022/04/01 02:30:38;;;;;;;1.75;1.10;;;1.20;99.90;;;;;;4996040;28;20069;-72
2022/04/01 02:33:08;;;;;;;3.60;1.45;;;2.10;99.90;;;;;;5002834;28;20038;-72
2022/04/01 02:35:34;;;;;;;1.83;1.15;;;2.10;99.90;;;;;;4995071;28;20088;-73
2022/04/01 02:38:01;;;;;;;2.20;1.23;;;2.10;99.90;;;;;;4994555;28;20078;-72
2022/04/01 02:40:28;;;;;;;4.35;1.30;;;2.10;99.90;;;;;;5011081;28;20117;-72
2022/04/01 02:42:54;;;;;;;2.42;1.27;;;2.10;99.90;;;;;;4994452;28;20139;-72
2022/04/01 02:45:22;;;;;;;2.25;1.23;;;2.10;99.90;;;;;;5011254;28;20053;-72
2022/04/01 02:47:48;;;;;;;2.95;1.00;;;2.10;99.90;;;;;;4995089;28;20089;-73
2022/04/01 02:50:13;;;;;;;1.85;1.20;;;2.10;99.90;;;;;;4994668;28;20471;-72
2022/04/01 02:52:39;;;;;;;4.40;1.17;;;2.20;99.90;;;;;;5011210;28;20048;-72
2022/04/01 02:55:06;;;;;;;2.63;1.13;;;2.20;99.90;;;;;;4994626;28;20052;-73
2022/04/01 02:57:33;;;;;;;2.72;1.00;;;2.20;99.90;;;;;;4991042;28;20054;-72
2022/04/01 02:59:59;;;;;;;2.90;1.20;;;2.20;99.90;;;;;;4989928;28;20449;-71
2022/04/01 03:02:25;;;;;;;2.83;1.25;;;2.20;99.90;;;;;;4986157;28;20046;-71
2022/04/01 03:04:51;;;;;;;3.25;1.38;;;2.20;99.90;;;;;;4973797;28;20112;-71
2022/04/01 03:07:18;;;;;;;1.70;1.13;;;2.20;99.90;;;;;;5010995;28;20041;-71
2022/04/01 03:09:44;;;;;;;1.88;0.98;;;2.20;99.90;;;;;;4977258;28;20109;-71
2022/04/01 03:12:11;;;;;;;1.77;1.20;;;2.20;99.90;;;;;;5010977;28;20578;-72
2022/04/01 03:14:37;;;;;;;4.88;1.23;;;2.20;99.90;;;;;;4994740;28;20046;-72
2022/04/01 03:17:03;;;;;;;6.05;1.25;;;2.20;99.90;;;;;;4994342;28;20061;-71
2022/04/01 03:19:29;;;;;;;6.40;1.20;;;2.30;99.90;;;;;;5010023;28;20492;-72
2022/04/01 03:21:55;;;;;;;4.57;1.50;;;2.20;99.90;;;;;;4994399;28;20077;-72
2022/04/01 03:24:21;;;;;;;5.43;1.40;;;2.30;99.90;;;;;;4977332;28;20509;-71
2022/04/01 03:26:47;;;;;;;2.58;1.10;;;2.30;99.90;;;;;;5011192;28;20046;-71
2022/04/01 03:29:13;;;;;;;2.88;0.95;;;2.30;99.90;;;;;;5010198;28;20196;-71
2022/04/01 03:31:40;;;;;;;2.47;1.30;;;2.30;99.90;;;;;;4991059;28;20360;-72
2022/04/01 03:34:07;;;;;;;4.35;1.10;;;2.20;99.90;;;;;;5005693;28;20046;-72
2022/04/01 03:36:36;;;;;;;3.85;1.10;;;2.30;99.90;;;;;;4991091;28;20487;-71
2022/04/01 03:39:03;;;;;;;2.58;1.30;;;2.20;99.90;;;;;;5007203;28;20057;-71
2022/04/01 03:41:30;;;;;;;3.88;1.13;;;2.30;99.90;;;;;;5010285;28;20049;-71
2022/04/01 03:43:56;;;;;;;4.32;1.10;;;2.20;99.90;;;;;;5010115;28;20057;-71
2022/04/01 03:46:24;;;;;;;1.70;1.00;;;2.30;99.90;;;;;;5011025;28;20054;-72
2022/04/01 03:49:07;;;;;;;3.47;1.17;;;2.30;99.90;;;;;;4994488;28;20495;-72
2022/04/01 03:51:36;;;;;;;1.88;1.02;;;2.30;99.90;;;;;;5003325;28;20054;-72
2022/04/01 03:54:05;;;;;;;3.58;1.65;;;2.30;99.90;;;;;;5010483;28;20050;-73
2022/04/01 03:56:36;;;;;;;3.05;1.00;;;2.30;99.90;;;;;;4995112;28;20053;-73
2022/04/01 03:59:07;;;;;;;2.78;1.08;;;2.30;99.90;;;;;;5014073;28;20065;-71
2022/04/01 04:01:37;;;;;;;2.13;0.90;;;2.30;99.90;;;;;;5014179;28;20368;-69
2022/04/01 04:04:05;;;;;;;2.95;1.00;;;2.30;99.90;;;;;;4996124;28;20518;-70
2022/04/01 04:06:34;;;;;;;2.63;1.10;;;2.30;99.90;;;;;;4997794;28;20089;-71
2022/04/01 04:09:02;;;;;;;3.25;1.00;;;2.30;99.90;;;;;;4998188;28;20046;-72
2022/04/01 04:11:31;;;;;;;4.65;1.10;;;2.30;99.90;;;;;;4997447;28;20137;-71
2022/04/01 04:13:58;;;;;;;3.60;1.08;;;2.30;99.90;;;;;;4998186;28;20057;-72
2022/04/01 04:16:47;;;;;;;3.75;1.08;;;2.30;99.90;;;;;;5013687;28;20054;-72
2022/04/01 04:19:27;;;;;;;5.13;0.93;;;2.30;99.90;;;;;;5013575;28;20137;-71
2022/04/01 04:22:05;;;;;;;5.50;1.08;;;2.30;99.90;;;;;;4997915;28;20108;-71
2022/04/01 04:24:41;;;;;;;2.63;0.93;;;2.30;99.90;;;;;;5013904;28;20042;-72
2022/04/01 04:27:12;;;;;;;3.28;1.00;;;2.30;99.90;;;;;;5014097;28;20045;-71
2022/04/01 04:29:49;;;;;;;2.63;1.15;;;2.20;99.90;;;;;;5013452;28;20073;-72
2022/04/01 04:32:33;;;;;;;2.95;1.00;;;2.30;99.90;;;;;;5013913;28;20050;-71
2022/04/01 04:35:04;;;;;;;2.22;1.00;;;2.20;99.90;;;;;;5013261;28;20153;-70
2022/04/01 04:37:34;;;;;;;4.90;1.20;;;2.20;99.90;;;;;;5012471;28;20085;-72
2022/04/01 04:40:01;;;;;;;2.88;1.10;;;2.20;99.90;;;;;;5013216;28;20395;-71
2022/04/01 04:42:28;;;;;;;2.05;1.00;;;2.20;99.90;;;;;;4997120;28;20046;-70
2022/04/01 04:44:55;;;;;;;4.45;1.02;;;2.20;99.90;;;;;;5013241;28;20449;-72
2022/04/01 04:47:29;;;;;;;4.50;0.93;;;2.20;99.90;;;;;;4993240;28;20053;-70
2022/04/01 04:49:59;;;;;;;1.75;0.90;;;2.20;99.90;;;;;;5006352;28;20050;-71
2022/04/01 04:52:35;;;;;;;3.47;1.00;;;2.20;99.90;;;;;;5029594;28;20406;-71
2022/04/01 04:55:08;;;;;;;2.55;1.00;;;2.40;99.90;;;;;;5013152;28;20053;-71
2022/04/01 04:57:35;;;;;;;1.83;1.00;;;2.20;99.90;;;;;;5013201;28;20045;-70
2022/04/01 05:00:01;;;;;;;4.05;0.90;;;2.20;99.90;;;;;;5012762;28;20518;-70
2022/04/01 05:02:46;;;;;;;4.10;0.85;;;2.20;99.90;;;;;;4997205;28;20133;-71
2022/04/01 05:05:36;;;;;;;4.40;1.10;;;2.20;99.90;;;;;;5012402;28;20054;-71
2022/04/01 05:08:40;;;;;;;3.03;1.02;;;2.20;99.90;;;;;;5012443;28;20045;-71
2022/04/01 05:11:37;;;;;;;2.90;0.85;;;2.20;99.90;;;;;;5012269;28;20053;-72
2022/04/01 05:14:28;;;;;;;1.75;0.80;;;2.20;99.90;;;;;;5029478;28;20046;-71
2022/04/01 05:17:00;;;;;;;3.38;1.00;;;2.20;99.90;;;;;;5012302;28;20045;-70
2022/04/01 05:19:27;;;;;;;4.75;1.20;;;2.20;99.90;;;;;;5011046;28;20053;-73
2022/04/01 05:22:03;;;;;;;2.35;1.08;;;2.20;99.90;;;;;;4993423;28;20108;-70
2022/04/01 05:24:42;;;;;;;2.00;0.82;;;2.20;99.90;;;;;;5009485;28;20081;-71
2022/04/01 05:27:31;;;;;;;1.88;1.10;;;2.20;99.90;;;;;;5012603;28;20049;-70
2022/04/01 05:30:13;;;;;;;3.90;1.00;;;2.20;99.90;;;;;;5011777;28;20053;-70
2022/04/01 05:32:39;;;;;;;;;;;2.20;99.90;;;;;;5013285;28;20133;-72
2022/04/01 05:35:06;;;;;;;2.75;0.95;;;2.20;99.90;;;;;;4996161;28;19921;-70
2022/04/01 05:37:34;;;;;;;2.22;1.10;;;2.30;99.90;;;;;;4995770;28;20506;-71
2022/04/01 05:40:05;;;;;;;4.82;0.93;;;2.30;99.90;;;;;;4995603;28;20053;-71
2022/04/01 05:42:32;;;;;;;2.42;0.93;;;2.30;99.90;;;;;;4980466;28;20089;-71
2022/04/01 05:45:02;;;;;;;3.15;0.85;;;2.30;99.90;;;;;;5012568;28;20064;-71
2022/04/01 05:47:31;;;;;;;3.20;1.10;;;2.30;99.90;;;;;;5012671;28;20049;-71
2022/04/01 05:49:59;;;;;;;3.80;1.10;;;2.90;99.90;;;;;;4994546;28;20490;-71
2022/04/01 05:52:25;;;;;;;2.55;0.90;;;2.40;99.90;;;;;;5011958;28;20504;-72
2022/04/01 05:54:52;;;;;;;1.25;1.05;;;2.40;99.90;;;;;;4976686;28;20065;-71
2022/04/01 05:57:19;;;;;;;2.50;1.20;;;2.40;99.90;;;;;;4995992;28;20132;-71
2022/04/01 05:59:45;;;;;;;2.15;0.82;;;2.40;99.90;;;;;;5011255;28;20487;-72
2022/04/01 06:02:20;;;;;;;3.20;1.10;;;2.40;99.90;;;;;;5012230;28;20045;-70
2022/04/01 06:05:09;;;;;;;4.35;1.23;;;2.50;99.90;;;;;;5011595;28;20053;-72
2022/04/01 06:07:51;;;;;;;4.10;1.02;;;2.50;99.90;;;;;;5012461;28;20050;-70
2022/04/01 06:10:54;;;;;;;3.50;1.17;;;2.60;99.90;;;;;;5010874;28;20568;-72
2022/04/01 06:13:50;;;;;;;3.10;1.15;;;2.60;99.90;;;;;;5026700;28;21688;-72
2022/04/01 06:16:23;;;;;;;2.20;0.88;;;2.60;99.90;;;;;;4993687;28;20427;-70
2022/04/01 06:19:04;;;;;;;3.80;1.17;;;2.60;99.90;;;;;;5001141;28;20410;-73
2022/04/01 06:21:38;;;;;;;2.58;1.00;;;2.60;99.90;;;;;;5011304;28;20049;-73
2022/04/01 06:24:42;;;;;;;3.33;1.10;;;2.70;99.90;;;;;;4995307;28;20077;-72
2022/04/01 06:27:11;;;;;;;4.50;1.25;;;2.70;99.90;;;;;;5000332;28;20050;-74
2022/04/01 06:29:38;;;;;;;2.08;1.00;;;2.70;99.90;;;;;;5007025;28;20077;-72
2022/04/01 06:32:07;;;;;;;2.47;1.35;;;2.80;99.90;;;;;;4995119;28;20124;-71
2022/04/01 06:34:56;;;;;;;1.80;0.90;;;2.80;99.90;;;;;;5010851;28;20058;-71
2022/04/01 06:37:32;;;;;;;3.70;1.00;;;2.80;99.90;;;;;;4994945;28;21062;-72
2022/04/01 06:40:10;;;;;;;3.13;1.13;;;2.80;99.90;;;;;;5001708;28;20045;-72
2022/04/01 06:42:38;;;;;;;1.65;0.98;;;2.90;99.90;;;;;;5010550;28;20058;-72
2022/04/01 06:45:15;;;;;;;2.95;1.00;;;2.90;99.90;;;;;;4995154;28;20504;-72
2022/04/01 06:47:41;;;;;;;4.60;1.35;;;2.90;99.90;;;;;;5010737;28;20104;-72
2022/04/01 06:50:09;;;;;;;2.80;1.27;;;2.90;99.90;;;;;;5000504;28;20045;-71
2022/04/01 06:52:35;;;;;;;4.20;1.40;;;2.90;99.90;;;;;;4996133;28;20054;-71
2022/04/01 06:55:01;;;;;;;2.55;1.00;;;3.00;99.90;;;;;;4976292;28;20054;-73
2022/04/01 06:57:27;;;;;;;1.55;1.08;;;3.00;99.90;;;;;;5011375;28;20557;-73
2022/04/01 06:59:53;;;;;;;4.15;1.23;;;3.00;99.90;;;;;;4991705;28;20049;-74
2022/04/01 07:02:19;;;;;;;3.35;1.02;;;4.00;99.90;;;;;;4976154;28;20057;-74
2022/04/01 07:04:45;;;;;;;3.40;1.00;;;3.00;99.90;;;;;;4985264;28;20046;-72
2022/04/01 07:07:11;;;;;;;3.63;1.33;;;3.00;99.90;;;;;;5017921;28;20084;-72
2022/04/01 07:09:37;;;;;;;2.45;1.05;;;3.10;99.90;;;;;;5017489;28;20441;-73
2022/04/01 07:12:04;;;;;;;5.88;1.35;;;3.10;99.90;;;;;;5013077;28;20137;-72
2022/04/01 07:14:31;;;;;;;4.05;1.30;;;3.10;99.90;;;;;;4997954;28;20225;-70
2022/04/01 07:16:59;;;;;;;2.60;1.10;;;3.10;99.90;;;;;;5012398;28;20096;-72
2022/04/01 07:19:25;;;;;;;1.38;1.00;;;3.10;99.90;;;;;;4991957;28;20449;-73
2022/04/01 07:21:51;;;;;;;2.60;1.08;;;3.10;99.90;;;;;;5015257;28;20053;-76
2022/04/01 07:24:17;;;;;;;2.90;1.10;;;3.10;99.90;;;;;;4977388;28;20062;-72
2022/04/01 07:26:44;;;;;;;2.65;1.40;;;3.20;99.90;;;;;;4993925;28;20128;-74
2022/04/01 07:29:13;;;;;;;3.28;1.23;;;3.10;99.90;;;;;;5010619;28;20514;-74
2022/04/01 07:34:36;;;;;;;2.60;1.38;;;3.10;99.90;;;;;;5002116;28;20050;-75
2022/04/01 07:37:03;;;;;;;4.63;1.23;;;3.10;99.90;;;;;;4998843;28;20386;-73
2022/04/01 07:39:29;;;;;;;5.15;1.65;;;3.10;99.90;;;;;;5014354;28;20092;-73
2022/04/01 07:41:55;;;;;;;3.40;1.60;;;3.00;99.90;;;;;;5014585;28;20042;-74
2022/04/01 07:44:22;;;;;;;2.30;1.35;;;2.60;99.90;;;;;;5012901;28;20108;-73
2022/04/01 07:46:49;;;;;;;4.78;1.45;;;2.90;99.90;;;;;;4995119;28;20042;-74
2022/04/01 07:49:16;;;;;;;3.35;1.58;;;2.80;99.90;;;;;;4982342;28;20045;-74
2022/04/01 07:51:43;;;;;;;6.10;1.75;;;3.10;99.90;;;;;;5014229;28;20045;-74
2022/04/01 07:54:11;;;;;;;3.83;1.50;;;2.70;99.90;;;;;;4997457;28;20486;-72
2022/04/01 07:56:37;;;;;;;4.47;1.63;;;2.70;99.90;;;;;;4979862;28;20156;-73
2022/04/01 07:59:04;;;;;;;3.50;1.85;;;2.60;99.90;;;;;;4998202;28;20046;-74
2022/04/01 08:01:30;;;;;;;4.55;2.30;;;2.50;99.90;;;;;;4995247;28;20125;-74
2022/04/01 08:03:56;;;;;;;4.82;3.10;;;2.50;99.90;;;;;;5016457;28;20046;-73
2022/04/01 08:06:22;;;;;;;4.95;3.25;;;2.40;99.90;;;;;;5014138;28;20056;-73
2022/04/01 08:08:48;;;;;;;6.00;3.90;;;2.40;99.90;;;;;;4999574;28;20042;-73
2022/04/01 08:11:14;;;;;;;8.50;3.85;;;2.30;99.90;;;;;;5015456;28;20164;-73
2022/04/01 08:13:40;;;;;;;8.65;4.07;;;2.20;99.90;;;;;;5004834;28;20053;-74
2022/04/01 08:16:06;;;;;;;8.00;4.47;;;2.20;99.90;;;;;;4994927;28;20047;-75
2022/04/01 08:18:32;;;;;;;7.85;4.57;;;2.20;99.90;;;;;;4988119;28;20049;-75
2022/04/01 08:20:58;;;;;;;9.10;5.43;;;2.20;99.90;;;;;;5013275;28;20125;-74
2022/04/01 08:23:24;;;;;;;11.98;5.15;;;2.30;99.90;;;;;;4978327;28;20054;-74
2022/04/01 08:25:50;;;;;;;8.10;4.38;;;2.30;99.90;;;;;;4978259;28;20451;-74
2022/04/01 08:28:16;;;;;;;11.15;5.07;;;2.30;99.90;;;;;;4998366;28;20114;-74
2022/04/01 08:30:42;;;;;;;7.55;4.68;;;2.30;99.90;;;;;;4979679;28;20061;-74
2022/04/01 08:33:08;;;;;;;8.30;4.68;;;2.40;99.90;;;;;;5012754;28;20056;-74
2022/04/01 08:35:35;;;;;;;9.38;5.18;;;2.30;99.90;;;;;;5023909;28;20050;-74
2022/04/01 08:38:01;;;;;;;9.82;5.55;;;2.40;99.90;;;;;;4995251;28;20507;-75
2022/04/01 08:40:29;;;;;;;8.18;4.70;;;2.40;99.90;;;;;;4993362;28;20042;-72
2022/04/01 08:42:55;;;;;;;7.40;4.53;;;2.50;99.90;;;;;;4997048;28;20096;-74
2022/04/01 08:45:21;;;;;;;8.18;4.88;;;2.60;99.90;;;;;;4996323;28;20081;-73
2022/04/01 08:47:48;;;;;;;7.63;4.68;;;2.70;99.90;;;;;;4997453;28;20061;-72
2022/04/01 08:50:14;;;;;;;7.55;4.93;;;2.80;99.90;;;;;;4996380;28;20053;-71
2022/04/01 08:52:40;;;;;;;8.18;4.40;;;2.80;99.90;;;;;;5012837;28;20057;-71
2022/04/01 08:55:11;;;;;;;8.52;3.83;;;2.90;99.90;;;;;;4996993;28;20049;-71
2022/04/01 08:57:40;;;;;;;5.63;3.50;;;2.90;99.90;;;;;;5013578;28;20607;-73
2022/04/01 09:00:30;;;;;;;7.15;3.67;;;2.90;99.90;;;;;;5012718;28;20121;-73
2022/04/01 09:03:06;;;;;;;6.72;3.60;;;3.10;99.90;;;;;;5009918;28;20093;-74
2022/04/01 09:05:32;;;;;;;6.47;3.88;;;3.00;99.90;;;;;;4997106;28;20096;-74
2022/04/01 09:08:05;;;;;;;8.02;4.15;;;3.00;99.90;;;;;;4980441;28;20045;-73
2022/04/01 09:10:48;;;;;;;9.43;3.88;;;3.20;99.90;;;;;;5004837;28;20405;-75
2022/04/01 09:13:14;;;;;;;8.13;4.20;;;3.50;99.90;;;;;;5008404;28;20085;-73
2022/04/01 09:15:42;;;;;;;6.40;4.15;;;3.30;99.90;;;;;;4970281;28;20521;-75
2022/04/01 09:18:08;;;;;;;8.43;3.95;;;3.30;99.90;;;;;;4998254;28;20049;-74
2022/04/01 09:20:44;;;;;;;11.07;4.45;;;3.30;99.90;;;;;;5014995;28;20466;-73
2022/04/01 09:23:11;;;;;;;7.07;4.13;;;3.50;99.90;;;;;;4995993;28;20417;-74
2022/04/01 09:25:45;;;;;;;8.13;4.07;;;3.60;99.90;;;;;;5012897;28;20042;-74
2022/04/01 09:28:29;;;;;;;8.20;4.43;;;3.70;99.90;;;;;;5013092;28;20383;-70
2022/04/01 09:31:06;;;;;;;9.52;4.07;;;3.80;99.90;;;;;;5011566;28;20127;-69
2022/04/01 09:33:45;;;;;;;8.93;4.50;;;3.70;99.90;;;;;;5003863;28;20135;-67
2022/04/01 09:36:19;;;;;;;8.00;4.40;;;3.70;99.90;;;;;;5012774;28;20144;-68
2022/04/01 09:39:11;;;;;;;9.13;4.70;;;3.70;99.90;;;;;;4995670;28;20124;-69
2022/04/01 09:41:43;;;;;;;7.43;4.38;;;3.70;99.90;;;;;;5011746;28;20069;-67
2022/04/01 09:44:17;;;;;;;9.90;4.53;;;3.80;99.90;;;;;;5011932;28;20054;-67
2022/04/01 09:46:46;;;;;;;7.38;4.30;;;3.90;99.90;;;;;;5012267;28;20085;-67
2022/04/01 09:49:14;;;;;;;11.93;4.47;;;4.00;99.90;;;;;;4994966;28;20052;-68
2022/04/01 09:51:43;;;;;;;9.30;4.13;;;3.90;99.90;;;;;;5009266;28;20483;-67
2022/04/01 09:54:10;;;;;;;7.18;4.22;;;3.80;99.90;;;;;;5010873;28;20161;-69
2022/04/01 09:56:47;;;;;;;8.05;4.50;;;3.90;99.90;;;;;;4996270;28;20057;-67
2022/04/01 09:59:15;;;;;;;5.88;4.20;;;3.90;99.90;;;;;;4994788;28;20472;-69
2022/04/01 10:01:43;;;;;;;9.35;4.15;;;4.00;99.90;;;;;;5012028;28;20052;-70
2022/04/01 10:04:12;;;;;;;6.78;4.05;;;3.90;99.90;;;;;;5011722;28;20054;-70
2022/04/01 10:06:39;;;;;;;11.60;4.25;;;3.80;99.90;;;;;;5012319;28;20393;-71
2022/04/01 10:09:11;;;;;;;11.35;4.50;;;4.10;99.90;;;;;;4995392;28;20045;-70
2022/04/01 10:11:38;;;;;;;;;;;4.00;99.90;;;;;;4995798;28;20104;-70
2022/04/01 10:14:16;;;;;;;14.88;4.40;;;3.90;99.90;;;;;;5010759;28;19929;-70
2022/04/01 10:16:44;;;;;;;8.52;3.30;;;3.90;99.90;;;;;;4995234;28;20041;-71
2022/04/01 10:19:19;;;;;;;5.63;3.42;;;3.90;99.90;;;;;;5011369;28;20054;-71
2022/04/01 10:21:45;;;;;;;10.52;3.80;;;3.90;99.90;;;;;;4995576;28;20038;-71
2022/04/01 10:24:14;;;;;;;18.30;4.80;;;4.00;99.90;;;;;;4978610;28;20380;-71
2022/04/01 10:26:54;;;;;;;8.27;3.08;;;4.10;99.90;;;;;;5011675;28;20117;-72
2022/04/01 10:29:21;;;;;;;6.85;2.85;;;4.20;99.90;;;;;;5010251;28;20042;-71
2022/04/01 10:31:54;;;;;;;4.40;2.70;;;4.00;99.90;;;;;;4992126;28;20050;-71
2022/04/01 10:34:22;;;;;;;3.47;2.25;;;4.30;99.90;;;;;;4997845;28;20058;-71
2022/04/01 10:36:57;;;;;;;8.13;2.13;;;4.20;99.90;;;;;;5008253;28;20034;-71
2022/04/01 10:39:25;;;;;;;3.00;1.95;;;4.00;99.90;;;;;;5005476;28;20053;-71
2022/04/01 10:42:12;;;;;;;3.30;1.80;;;4.00;99.90;;;;;;5019378;28;20053;-71
2022/04/01 10:44:48;;;;;;;2.53;1.70;;;4.00;99.90;;;;;;5015138;28;20054;-70
2022/04/01 10:47:14;;;;;;;2.83;1.73;;;4.10;99.90;;;;;;4995033;28;20054;-70
2022/04/01 10:52:29;;;;;;;3.83;2.05;;;4.10;99.90;;;;;;5022877;28;20050;-70
2022/04/01 10:55:12;;;;;;;4.60;1.70;;;4.10;99.90;;;;;;5009656;28;20101;-69
2022/04/01 10:57:48;;;;;;;3.63;1.55;;;4.10;99.90;;;;;;5006973;28;20050;-69
2022/04/01 11:00:17;;;;;;;1.73;1.35;;;4.20;99.90;;;;;;5010908;28;20132;-70
2022/04/01 11:02:48;;;;;;;4.00;1.63;;;4.10;99.90;;;;;;4993604;28;20038;-71
2022/04/01 11:05:25;;;;;;;2.38;1.48;;;4.30;99.90;;;;;;4991631;28;20046;-70
2022/04/01 11:08:17;;;;;;;3.90;1.77;;;4.20;99.90;;;;;;4987985;28;20407;-69
2022/04/01 11:11:12;;;;;;;5.18;1.40;;;4.40;99.90;;;;;;4981727;28;20082;-71
2022/04/01 11:13:39;;;;;;;1.75;1.20;;;4.40;99.90;;;;;;5009895;28;20187;-74
2022/04/01 11:16:16;;;;;;;2.95;1.20;;;4.40;99.90;;;;;;5014159;28;20077;-69
2022/04/01 11:19:17;;;;;;;2.13;1.63;;;4.40;99.90;;;;;;4991834;28;20704;-70
2022/04/01 11:21:45;;;;;;;3.93;1.53;;;4.50;99.90;;;;;;4988900;28;20115;-69
2022/04/01 11:24:33;;;;;;;5.63;1.42;;;4.50;99.90;;;;;;4994750;28;20041;-69
2022/04/01 11:27:23;;;;;;;6.57;1.80;;;4.50;99.90;;;;;;5011897;28;20042;-69
2022/04/01 11:30:09;;;;;;;4.07;1.60;;;4.80;99.90;;;;;;4991093;28;20042;-70
2022/04/01 11:32:36;;;;;;;4.40;1.67;;;4.60;99.90;;;;;;5010735;28;20058;-70
2022/04/01 11:35:03;;;;;;;3.40;1.73;;;4.70;99.90;;;;;;5011193;28;20088;-69
2022/04/01 11:37:34;;;;;;;3.42;1.58;;;4.70;99.90;;;;;;5010358;28;20061;-69
2022/04/01 11:40:15;;;;;;;4.72;1.80;;;4.70;99.90;;;;;;4990230;28;20051;-71
2022/04/01 11:42:56;;;;;;;3.63;1.70;;;4.80;99.90;;;;;;4992595;28;20459;-68
2022/04/01 11:45:23;;;;;;;2.42;1.60;;;4.90;99.90;;;;;;5010636;28;20438;-71
2022/04/01 11:47:50;;;;;;;4.70;2.17;;;4.90;99.90;;;;;;4993697;28;20112;-71
2022/04/01 11:50:18;;;;;;;3.10;1.40;;;4.90;99.90;;;;;;4993497;28;20083;-70
2022/04/01 11:52:46;;;;;;;2.83;1.67;;;4.90;99.90;;;;;;4994275;28;20052;-76
2022/04/01 11:55:13;;;;;;;2.45;1.60;;;4.70;99.90;;;;;;4994238;28;20148;-70
2022/04/01 11:57:40;;;;;;;5.75;1.90;;;4.90;99.90;;;;;;5010489;28;20062;-71
2022/04/01 12:00:15;;;;;;;4.65;1.77;;;5.00;99.90;;;;;;4993084;28;20136;-72
2022/04/01 12:02:43;;;;;;;5.88;1.75;;;5.00;99.90;;;;;;5010041;28;20050;-67
2022/04/01 12:05:10;;;;;;;3.78;1.85;;;5.20;99.90;;;;;;5010830;28;20084;-68
2022/04/01 12:10:28;;;;;;;3.22;1.40;;;5.20;99.90;;;;;;4999716;28;20052;-71
2022/04/01 12:13:00;;;;;;;2.72;1.50;;;5.30;99.90;;;;;;4992643;28;20054;-71
2022/04/01 12:15:45;;;;;;;;;;;5.40;99.90;;;;;;5011731;28;20037;-70
2022/04/01 12:18:16;;;;;;;5.65;1.85;;;5.40;99.90;;;;;;4997611;28;19929;-70
2022/04/01 12:20:47;;;;;;;5.90;1.55;;;5.40;99.90;;;;;;5019293;28;20064;-71
2022/04/01 12:23:14;;;;;;;3.83;1.40;;;5.50;99.90;;;;;;4996872;28;20050;-71
2022/04/01 12:25:41;;;;;;;3.35;1.65;;;5.50;99.90;;;;;;4999904;28;20049;-71
2022/04/01 12:28:13;;;;;;;2.67;1.52;;;5.50;99.90;;;;;;5021235;28;20084;-70
2022/04/01 12:30:50;;;;;;;2.45;1.58;;;5.60;99.90;;;;;;5015305;28;20112;-71
2022/04/01 12:33:24;;;;;;;1.80;1.30;;;5.50;99.90;;;;;;5017951;28;20136;-71
2022/04/01 12:35:57;;;;;;;4.28;1.60;;;5.30;99.90;;;;;;5012480;28;20092;-72
2022/04/01 12:38:25;;;;;;;3.47;1.90;;;5.30;99.90;;;;;;5014135;28;20502;-71
2022/04/01 12:40:52;;;;;;;3.53;1.83;;;5.30;99.90;;;;;;5025131;28;20176;-71
2022/04/01 12:43:43;;;;;;;3.95;1.50;;;5.40;99.90;;;;;;5015134;28;20063;-71
2022/04/01 12:46:15;;;;;;;4.07;1.58;;;5.50;99.90;;;;;;5015890;28;20045;-71
2022/04/01 12:48:55;;;;;;;6.35;2.08;;;5.70;99.90;;;;;;4980814;28;20064;-70
2022/04/01 12:51:27;;;;;;;4.85;1.52;;;5.80;99.90;;;;;;5015744;28;20095;-71
2022/04/01 12:53:58;;;;;;;5.95;1.65;;;5.80;99.90;;;;;;5017351;28;20192;-71
2022/04/01 12:56:26;;;;;;;;;;;4.80;99.90;;;;;;4998873;28;20513;-71
2022/04/01 12:59:02;;;;;;;5.90;2.00;;;5.70;99.90;;;;;;5000016;28;19930;-74
2022/04/01 13:01:30;;;;;;;3.67;1.58;;;5.80;99.90;;;;;;4986917;28;20054;-77
2022/04/01 13:03:58;;;;;;;2.92;1.63;;;5.90;99.90;;;;;;4993433;28;20061;-74
2022/04/01 13:06:25;;;;;;;2.65;1.50;;;5.80;99.90;;;;;;5007212;28;20482;-73
2022/04/01 13:09:07;;;;;;;3.83;1.70;;;5.80;99.90;;;;;;4996335;28;20080;-72
2022/04/01 13:11:37;;;;;;;;;;;5.80;99.90;;;;;;5012410;28;20057;-72
2022/04/01 13:14:21;;;;;;;3.75;2.00;;;5.90;99.90;;;;;;4980318;28;19925;-76
2022/04/01 13:16:49;;;;;;;3.50;1.50;;;5.90;99.90;;;;;;5012655;28;20080;-77
2022/04/01 13:19:26;;;;;;;5.00;2.00;;;5.90;99.90;;;;;;5002354;28;20046;-72
2022/04/01 13:21:57;;;;;;;4.50;1.50;;;6.00;99.90;;;;;;5007700;28;20084;-73
2022/04/01 13:24:26;;;;;;;3.20;1.55;;;6.00;99.90;;;;;;5000601;28;20053;-70
2022/04/01 13:26:53;;;;;;;6.75;1.80;;;5.90;99.90;;;;;;5011904;28;20038;-72
2022/04/01 13:29:19;;;;;;;3.38;1.50;;;5.80;99.90;;;;;;4996170;28;20048;-73